sensor_id;sensor_type;location;lat;lon;timestamp;P1;durP1;ratioP1;P2;durP2;ratioP2
76105;SDS011;64832;45.274;5.880;2023-09-19T00:02:01;2.55;;;0.98;;
76105;SDS011;64832;45.274;5.880;2023-09-19T00:04:30;6.35;;;0.90;;
76105;SDS011;64832;45.274;5.880;2023-09-19T00:06:57;1.55;;;0.93;;
76105;SDS011;64832;45.274;5.880;2023-09-19T00:09:23;2.10;;;1.17;;
76105;SDS011;64832;45.274;5.880;2023-09-19T00:11:51;3.03;;;0.90;;
76105;SDS011;64832;45.274;5.880;2023-09-19T00:14:16;3.67;;;1.05;;
76105;SDS011;64832;45.274;5.880;2023-09-19T00:16:42;2.22;;;1.30;;
76105;SDS011;64832;45.274;5.880;2023-09-19T00:19:07;2.10;;;0.90;;
76105;SDS011;64832;45.274;5.880;2023-09-19T00:21:34;1.98;;;1.13;;
76105;SDS011;64832;45.274;5.880;2023-09-19T00:24:02;3.88;;;1.10;;
76105;SDS011;64832;45.274;5.880;2023-09-19T00:26:29;2.17;;;0.93;;
76105;SDS011;64832;45.274;5.880;2023-09-19T00:28:57;3.63;;;0.90;;
76105;SDS011;64832;45.274;5.880;2023-09-19T00:31:24;1.95;;;1.05;;
76105;SDS011;64832;45.274;5.880;2023-09-19T00:33:50;2.65;;;1.08;;
76105;SDS011;64832;45.274;5.880;2023-09-19T00:36:16;4.13;;;1.15;;
76105;SDS011;64832;45.274;5.880;2023-09-19T00:38:43;1.35;;;0.90;;
76105;SDS011;64832;45.274;5.880;2023-09-19T00:41:10;4.22;;;0.88;;
76105;SDS011;64832;45.274;5.880;2023-09-19T00:43:37;3.58;;;0.85;;
76105;SDS011;64832;45.274;5.880;2023-09-19T00:46:05;2.70;;;0.88;;
76105;SDS011;64832;45.274;5.880;2023-09-19T00:48:31;3.83;;;0.90;;
76105;SDS011;64832;45.274;5.880;2023-09-19T00:50:57;1.60;;;0.90;;
76105;SDS011;64832;45.274;5.880;2023-09-19T00:53:27;2.13;;;0.90;;
76105;SDS011;64832;45.274;5.880;2023-09-19T00:55:52;3.67;;;1.20;;
76105;SDS011;64832;45.274;5.880;2023-09-19T00:58:18;3.85;;;0.95;;
76105;SDS011;64832;45.274;5.880;2023-09-19T01:00:44;3.25;;;1.02;;
76105;SDS011;64832;45.274;5.880;2023-09-19T01:03:10;1.58;;;0.85;;
76105;SDS011;64832;45.274;5.880;2023-09-19T01:05:36;2.72;;;0.98;;
76105;SDS011;64832;45.274;5.880;2023-09-19T01:08:01;2.75;;;1.20;;
76105;SDS011;64832;45.274;5.880;2023-09-19T01:10:27;2.80;;;1.00;;
76105;SDS011;64832;45.274;5.880;2023-09-19T01:28:34;4.45;;;1.02;;
76105;SDS011;64832;45.274;5.880;2023-09-19T01:31:09;1.85;;;0.90;;
76105;SDS011;64832;45.274;5.880;2023-09-19T01:33:56;1.55;;;0.90;;
76105;SDS011;64832;45.274;5.880;2023-09-19T01:36:22;3.78;;;1.00;;
76105;SDS011;64832;45.274;5.880;2023-09-19T01:38:49;2.67;;;1.13;;
76105;SDS011;64832;45.274;5.880;2023-09-19T01:41:16;2.47;;;0.98;;
76105;SDS011;64832;45.274;5.880;2023-09-19T01:43:47;2.83;;;0.80;;
76105;SDS011;64832;45.274;5.880;2023-09-19T01:46:20;2.97;;;1.08;;
76105;SDS011;64832;45.274;5.880;2023-09-19T01:52:12;3.30;;;0.90;;
76105;SDS011;64832;45.274;5.880;2023-09-19T01:54:50;3.83;;;1.00;;
76105;SDS011;64832;45.274;5.880;2023-09-19T01:59:57;1.10;;;0.90;;
76105;SDS011;64832;45.274;5.880;2023-09-19T02:02:33;2.70;;;1.10;;
76105;SDS011;64832;45.274;5.880;2023-09-19T02:05:01;1.55;;;0.80;;
76105;SDS011;64832;45.274;5.880;2023-09-19T02:07:29;3.45;;;1.00;;
76105;SDS011;64832;45.274;5.880;2023-09-19T02:09:56;2.33;;;0.90;;
76105;SDS011;64832;45.274;5.880;2023-09-19T02:12:24;2.08;;;1.02;;
76105;SDS011;64832;45.274;5.880;2023-09-19T02:14:49;3.47;;;1.10;;
76105;SDS011;64832;45.274;5.880;2023-09-19T02:17:14;3.47;;;1.20;;
76105;SDS011;64832;45.274;5.880;2023-09-19T02:19:40;2.17;;;1.00;;
76105;SDS011;64832;45.274;5.880;2023-09-19T02:22:05;3.25;;;1.10;;
76105;SDS011;64832;45.274;5.880;2023-09-19T02:24:32;8.90;;;1.10;;
76105;SDS011;64832;45.274;5.880;2023-09-19T02:26:58;2.42;;;1.00;;
76105;SDS011;64832;45.274;5.880;2023-09-19T02:29:25;2.05;;;0.88;;
76105;SDS011;64832;45.274;5.880;2023-09-19T02:31:51;1.40;;;1.00;;
76105;SDS011;64832;45.274;5.880;2023-09-19T02:34:18;1.65;;;1.00;;
76105;SDS011;64832;45.274;5.880;2023-09-19T02:36:44;3.38;;;1.23;;
76105;SDS011;64832;45.274;5.880;2023-09-19T02:39:10;4.07;;;1.10;;
76105;SDS011;64832;45.274;5.880;2023-09-19T02:41:36;2.92;;;0.98;;
76105;SDS011;64832;45.274;5.880;2023-09-19T02:44:02;2.20;;;1.02;;
76105;SDS011;64832;45.274;5.880;2023-09-19T02:46:27;3.67;;;0.90;;
76105;SDS011;64832;45.274;5.880;2023-09-19T02:48:53;1.67;;;0.85;;
76105;SDS011;64832;45.274;5.880;2023-09-19T02:51:19;3.47;;;1.00;;
76105;SDS011;64832;45.274;5.880;2023-09-19T02:53:45;2.40;;;0.93;;
76105;SDS011;64832;45.274;5.880;2023-09-19T02:56:12;3.80;;;0.90;;
76105;SDS011;64832;45.274;5.880;2023-09-19T02:58:38;2.63;;;0.90;;
76105;SDS011;64832;45.274;5.880;2023-09-19T03:01:08;2.30;;;1.00;;
76105;SDS011;64832;45.274;5.880;2023-09-19T03:03:34;5.32;;;1.25;;
76105;SDS011;64832;45.274;5.880;2023-09-19T03:05:59;4.00;;;1.00;;
76105;SDS011;64832;45.274;5.880;2023-09-19T03:08:29;1.88;;;0.90;;
76105;SDS011;64832;45.274;5.880;2023-09-19T03:10:54;2.70;;;0.90;;
76105;SDS011;64832;45.274;5.880;2023-09-19T03:13:19;2.20;;;0.90;;
76105;SDS011;64832;45.274;5.880;2023-09-19T03:15:45;2.35;;;0.90;;
76105;SDS011;64832;45.274;5.880;2023-09-19T03:18:12;0.93;;;0.93;;
76105;SDS011;64832;45.274;5.880;2023-09-19T03:20:38;3.08;;;1.15;;
76105;SDS011;64832;45.274;5.880;2023-09-19T03:23:03;1.40;;;1.10;;
76105;SDS011;64832;45.274;5.880;2023-09-19T03:25:31;1.80;;;1.00;;
76105;SDS011;64832;45.274;5.880;2023-09-19T03:27:56;3.88;;;0.90;;
76105;SDS011;64832;45.274;5.880;2023-09-19T03:30:24;2.25;;;0.80;;
76105;SDS011;64832;45.274;5.880;2023-09-19T03:32:51;1.60;;;0.90;;
76105;SDS011;64832;45.274;5.880;2023-09-19T03:35:17;3.50;;;0.82;;
76105;SDS011;64832;45.274;5.880;2023-09-19T03:37:43;3.00;;;1.00;;
76105;SDS011;64832;45.274;5.880;2023-09-19T03:40:09;1.10;;;0.85;;
76105;SDS011;64832;45.274;5.880;2023-09-19T03:42:37;3.20;;;0.93;;
76105;SDS011;64832;45.274;5.880;2023-09-19T03:45:04;4.25;;;1.00;;
76105;SDS011;64832;45.274;5.880;2023-09-19T03:47:31;2.95;;;1.17;;
76105;SDS011;64832;45.274;5.880;2023-09-19T03:49:57;3.40;;;1.00;;
76105;SDS011;64832;45.274;5.880;2023-09-19T03:52:23;3.83;;;0.98;;
76105;SDS011;64832;45.274;5.880;2023-09-19T03:54:50;3.13;;;1.10;;
76105;SDS011;64832;45.274;5.880;2023-09-19T03:57:15;3.85;;;0.90;;
76105;SDS011;64832;45.274;5.880;2023-09-19T03:59:45;2.72;;;1.17;;
76105;SDS011;64832;45.274;5.880;2023-09-19T04:02:11;3.95;;;0.98;;
76105;SDS011;64832;45.274;5.880;2023-09-19T04:04:47;4.00;;;1.10;;
76105;SDS011;64832;45.274;5.880;2023-09-19T04:07:15;1.95;;;1.10;;
76105;SDS011;64832;45.274;5.880;2023-09-19T04:09:41;3.38;;;1.05;;
76105;SDS011;64832;45.274;5.880;2023-09-19T04:12:07;3.05;;;1.00;;
76105;SDS011;64832;45.274;5.880;2023-09-19T04:14:34;1.00;;;0.90;;
76105;SDS011;64832;45.274;5.880;2023-09-19T04:16:59;2.72;;;0.98;;
76105;SDS011;64832;45.274;5.880;2023-09-19T04:19:25;1.13;;;0.93;;
76105;SDS011;64832;45.274;5.880;2023-09-19T04:21:51;1.13;;;1.00;;
76105;SDS011;64832;45.274;5.880;2023-09-19T04:24:16;1.75;;;1.10;;
76105;SDS011;64832;45.274;5.880;2023-09-19T04:26:44;3.15;;;1.00;;
76105;SDS011;64832;45.274;5.880;2023-09-19T04:29:10;1.45;;;1.10;;
76105;SDS011;64832;45.274;5.880;2023-09-19T04:31:38;2.78;;;0.90;;
76105;SDS011;64832;45.274;5.880;2023-09-19T04:34:08;1.50;;;1.02;;
76105;SDS011;64832;45.274;5.880;2023-09-19T04:36:33;2.45;;;1.00;;
76105;SDS011;64832;45.274;5.880;2023-09-19T04:39:00;2.17;;;1.10;;
76105;SDS011;64832;45.274;5.880;2023-09-19T04:41:27;3.28;;;1.20;;
76105;SDS011;64832;45.274;5.880;2023-09-19T04:43:52;5.82;;;1.63;;
76105;SDS011;64832;45.274;5.880;2023-09-19T04:46:18;4.47;;;1.50;;
76105;SDS011;64832;45.274;5.880;2023-09-19T04:48:43;5.35;;;1.88;;
76105;SDS011;64832;45.274;5.880;2023-09-19T04:51:08;7.15;;;2.20;;
76105;SDS011;64832;45.274;5.880;2023-09-19T04:53:35;7.18;;;1.83;;
76105;SDS011;64832;45.274;5.880;2023-09-19T04:56:00;5.88;;;2.00;;
76105;SDS011;64832;45.274;5.880;2023-09-19T04:58:27;6.03;;;2.22;;
76105;SDS011;64832;45.274;5.880;2023-09-19T05:00:53;5.75;;;1.90;;
76105;SDS011;64832;45.274;5.880;2023-09-19T05:03:18;3.63;;;1.63;;
76105;SDS011;64832;45.274;5.880;2023-09-19T05:05:45;4.72;;;2.00;;
76105;SDS011;64832;45.274;5.880;2023-09-19T05:08:10;4.20;;;1.50;;
76105;SDS011;64832;45.274;5.880;2023-09-19T05:10:35;5.45;;;2.20;;
76105;SDS011;64832;45.274;5.880;2023-09-19T05:13:03;4.38;;;1.73;;
76105;SDS011;64832;45.274;5.880;2023-09-19T05:15:30;5.80;;;1.60;;
76105;SDS011;64832;45.274;5.880;2023-09-19T05:17:56;2.53;;;1.50;;
76105;SDS011;64832;45.274;5.880;2023-09-19T05:20:21;4.03;;;1.92;;
76105;SDS011;64832;45.274;5.880;2023-09-19T05:23:00;3.92;;;1.40;;
76105;SDS011;64832;45.274;5.880;2023-09-19T05:25:31;2.58;;;1.35;;
76105;SDS011;64832;45.274;5.880;2023-09-19T05:27:57;4.75;;;1.75;;
76105;SDS011;64832;45.274;5.880;2023-09-19T05:30:24;2.72;;;1.42;;
76105;SDS011;64832;45.274;5.880;2023-09-19T05:32:52;5.90;;;1.40;;
76105;SDS011;64832;45.274;5.880;2023-09-19T05:35:18;4.40;;;1.52;;
76105;SDS011;64832;45.274;5.880;2023-09-19T05:37:43;2.83;;;1.45;;
76105;SDS011;64832;45.274;5.880;2023-09-19T05:40:09;7.97;;;1.55;;
76105;SDS011;64832;45.274;5.880;2023-09-19T05:42:37;4.00;;;1.45;;
76105;SDS011;64832;45.274;5.880;2023-09-19T05:45:04;3.30;;;1.67;;
76105;SDS011;64832;45.274;5.880;2023-09-19T05:47:31;3.35;;;1.33;;
76105;SDS011;64832;45.274;5.880;2023-09-19T05:49:57;4.57;;;1.58;;
76105;SDS011;64832;45.274;5.880;2023-09-19T05:52:22;2.60;;;1.40;;
76105;SDS011;64832;45.274;5.880;2023-09-19T05:54:48;4.82;;;1.30;;
76105;SDS011;64832;45.274;5.880;2023-09-19T05:57:14;3.55;;;1.30;;
76105;SDS011;64832;45.274;5.880;2023-09-19T05:59:40;3.00;;;1.30;;
76105;SDS011;64832;45.274;5.880;2023-09-19T06:02:07;2.08;;;1.35;;
76105;SDS011;64832;45.274;5.880;2023-09-19T06:04:33;7.10;;;3.20;;
76105;SDS011;64832;45.274;5.880;2023-09-19T06:06:59;5.57;;;2.90;;
76105;SDS011;64832;45.274;5.880;2023-09-19T06:09:25;4.95;;;3.25;;
76105;SDS011;64832;45.274;5.880;2023-09-19T06:11:53;4.75;;;3.25;;
76105;SDS011;64832;45.274;5.880;2023-09-19T06:14:18;5.00;;;3.40;;
76105;SDS011;64832;45.274;5.880;2023-09-19T06:16:44;5.22;;;3.50;;
76105;SDS011;64832;45.274;5.880;2023-09-19T06:19:10;7.63;;;3.33;;
76105;SDS011;64832;45.274;5.880;2023-09-19T06:21:36;7.45;;;3.03;;
76105;SDS011;64832;45.274;5.880;2023-09-19T06:24:01;7.20;;;2.53;;
76105;SDS011;64832;45.274;5.880;2023-09-19T06:26:27;5.20;;;2.55;;
76105;SDS011;64832;45.274;5.880;2023-09-19T06:28:54;6.10;;;2.00;;
76105;SDS011;64832;45.274;5.880;2023-09-19T06:31:20;3.05;;;2.08;;
76105;SDS011;64832;45.274;5.880;2023-09-19T06:33:48;5.22;;;2.17;;
76105;SDS011;64832;45.274;5.880;2023-09-19T06:36:13;6.00;;;2.40;;
76105;SDS011;64832;45.274;5.880;2023-09-19T06:38:39;2.88;;;2.30;;
76105;SDS011;64832;45.274;5.880;2023-09-19T06:41:04;7.78;;;2.75;;
76105;SDS011;64832;45.274;5.880;2023-09-19T06:43:33;7.63;;;2.60;;
76105;SDS011;64832;45.274;5.880;2023-09-19T06:45:59;5.70;;;2.28;;
76105;SDS011;64832;45.274;5.880;2023-09-19T06:48:25;4.68;;;2.10;;
76105;SDS011;64832;45.274;5.880;2023-09-19T06:50:54;4.50;;;2.00;;
76105;SDS011;64832;45.274;5.880;2023-09-19T06:53:20;6.95;;;2.38;;
76105;SDS011;64832;45.274;5.880;2023-09-19T06:55:46;5.20;;;2.28;;
76105;SDS011;64832;45.274;5.880;2023-09-19T06:58:12;5.47;;;1.92;;
76105;SDS011;64832;45.274;5.880;2023-09-19T12:00:21;1.30;;;1.20;;
76105;SDS011;64832;45.274;5.880;2023-09-19T12:02:47;2.35;;;1.30;;
76105;SDS011;64832;45.274;5.880;2023-09-19T12:05:19;8.18;;;1.48;;
76105;SDS011;64832;45.274;5.880;2023-09-19T12:07:53;3.33;;;1.40;;
76105;SDS011;64832;45.274;5.880;2023-09-19T12:10:19;1.45;;;1.33;;
76105;SDS011;64832;45.274;5.880;2023-09-19T12:12:47;2.65;;;1.30;;
76105;SDS011;64832;45.274;5.880;2023-09-19T12:15:14;3.58;;;1.30;;
76105;SDS011;64832;45.274;5.880;2023-09-19T12:17:40;1.42;;;1.33;;
76105;SDS011;64832;45.274;5.880;2023-09-19T12:20:07;1.70;;;1.30;;
76105;SDS011;64832;45.274;5.880;2023-09-19T12:22:40;1.38;;;1.20;;
76105;SDS011;64832;45.274;5.880;2023-09-19T12:25:09;2.58;;;1.20;;
76105;SDS011;64832;45.274;5.880;2023-09-19T12:27:46;1.50;;;1.23;;
76105;SDS011;64832;45.274;5.880;2023-09-19T12:30:17;2.35;;;1.08;;
76105;SDS011;64832;45.274;5.880;2023-09-19T12:32:45;2.30;;;1.20;;
76105;SDS011;64832;45.274;5.880;2023-09-19T12:35:11;1.33;;;1.15;;
76105;SDS011;64832;45.274;5.880;2023-09-19T12:37:55;2.58;;;1.20;;
76105;SDS011;64832;45.274;5.880;2023-09-19T12:40:21;1.10;;;1.00;;
76105;SDS011;64832;45.274;5.880;2023-09-19T12:42:52;3.45;;;1.00;;
76105;SDS011;64832;45.274;5.880;2023-09-19T12:45:20;2.17;;;1.23;;
76105;SDS011;64832;45.274;5.880;2023-09-19T12:53:39;1.52;;;1.00;;
76105;SDS011;64832;45.274;5.880;2023-09-19T12:56:11;1.30;;;1.20;;
76105;SDS011;64832;45.274;5.880;2023-09-19T12:58:54;1.60;;;1.13;;
76105;SDS011;64832;45.274;5.880;2023-09-19T13:01:21;1.30;;;1.00;;
76105;SDS011;64832;45.274;5.880;2023-09-19T13:06:45;2.05;;;0.90;;
76105;SDS011;64832;45.274;5.880;2023-09-19T13:09:13;1.35;;;1.13;;
76105;SDS011;64832;45.274;5.880;2023-09-19T13:11:40;1.10;;;1.00;;
76105;SDS011;64832;45.274;5.880;2023-09-19T13:14:14;1.45;;;1.00;;
76105;SDS011;64832;45.274;5.880;2023-09-19T13:17:17;0.80;;;0.80;;
76105;SDS011;64832;45.274;5.880;2023-09-19T13:19:46;3.83;;;0.98;;
76105;SDS011;64832;45.274;5.880;2023-09-19T13:25:15;2.15;;;1.00;;
76105;SDS011;64832;45.274;5.880;2023-09-19T13:30:13;1.92;;;1.17;;
76105;SDS011;64832;45.274;5.880;2023-09-19T13:32:39;5.40;;;3.25;;
76105;SDS011;64832;45.274;5.880;2023-09-19T13:35:06;9.38;;;2.97;;
76105;SDS011;64832;45.274;5.880;2023-09-19T13:37:35;6.78;;;2.50;;
76105;SDS011;64832;45.274;5.880;2023-09-19T13:40:09;7.78;;;1.65;;
76105;SDS011;64832;45.274;5.880;2023-09-19T13:42:42;3.88;;;2.10;;
76105;SDS011;64832;45.274;5.880;2023-09-19T13:45:08;3.88;;;1.90;;
76105;SDS011;64832;45.274;5.880;2023-09-19T13:47:37;6.40;;;1.75;;
76105;SDS011;64832;45.274;5.880;2023-09-19T13:50:03;2.08;;;1.42;;
76105;SDS011;64832;45.274;5.880;2023-09-19T13:52:32;3.47;;;1.60;;
76105;SDS011;64832;45.274;5.880;2023-09-19T13:54:58;2.25;;;1.45;;
76105;SDS011;64832;45.274;5.880;2023-09-19T13:57:25;1.35;;;1.17;;
76105;SDS011;64832;45.274;5.880;2023-09-19T13:59:51;2.28;;;1.25;;
76105;SDS011;64832;45.274;5.880;2023-09-19T14:02:19;1.20;;;1.10;;
76105;SDS011;64832;45.274;5.880;2023-09-19T14:04:47;2.30;;;0.90;;
76105;SDS011;64832;45.274;5.880;2023-09-19T14:07:13;4.22;;;1.10;;
76105;SDS011;64832;45.274;5.880;2023-09-19T14:09:40;1.45;;;1.00;;
76105;SDS011;64832;45.274;5.880;2023-09-19T14:12:06;1.85;;;1.00;;
76105;SDS011;64832;45.274;5.880;2023-09-19T14:14:32;2.15;;;1.20;;
76105;SDS011;64832;45.274;5.880;2023-09-19T14:16:58;2.42;;;0.93;;
76105;SDS011;64832;45.274;5.880;2023-09-19T14:19:26;1.23;;;1.05;;
76105;SDS011;64832;45.274;5.880;2023-09-19T14:21:55;1.33;;;0.98;;
76105;SDS011;64832;45.274;5.880;2023-09-19T14:24:22;2.05;;;1.20;;
76105;SDS011;64832;45.274;5.880;2023-09-19T14:26:48;1.10;;;0.95;;
76105;SDS011;64832;45.274;5.880;2023-09-19T14:29:14;1.17;;;0.73;;
76105;SDS011;64832;45.274;5.880;2023-09-19T14:31:41;2.10;;;0.77;;
76105;SDS011;64832;45.274;5.880;2023-09-19T14:46:48;2.58;;;1.15;;
76105;SDS011;64832;45.274;5.880;2023-09-19T14:49:14;3.55;;;0.70;;
76105;SDS011;64832;45.274;5.880;2023-09-19T14:51:41;7.75;;;1.70;;
76105;SDS011;64832;45.274;5.880;2023-09-19T14:54:09;2.50;;;1.02;;
76105;SDS011;64832;45.274;5.880;2023-09-19T14:56:35;1.15;;;0.90;;
76105;SDS011;64832;45.274;5.880;2023-09-19T14:59:00;4.25;;;1.10;;
76105;SDS011;64832;45.274;5.880;2023-09-19T15:01:27;4.10;;;0.80;;
76105;SDS011;64832;45.274;5.880;2023-09-19T15:03:53;2.33;;;0.90;;
76105;SDS011;64832;45.274;5.880;2023-09-19T15:06:22;2.15;;;0.90;;
76105;SDS011;64832;45.274;5.880;2023-09-19T15:08:51;3.97;;;1.15;;
76105;SDS011;64832;45.274;5.880;2023-09-19T15:11:18;4.75;;;1.10;;
76105;SDS011;64832;45.274;5.880;2023-09-19T15:13:45;4.38;;;0.95;;
76105;SDS011;64832;45.274;5.880;2023-09-19T15:16:14;1.98;;;1.08;;
76105;SDS011;64832;45.274;5.880;2023-09-19T15:18:44;3.78;;;0.90;;
76105;SDS011;64832;45.274;5.880;2023-09-19T15:21:13;3.10;;;1.00;;
76105;SDS011;64832;45.274;5.880;2023-09-19T15:23:40;1.85;;;0.90;;
76105;SDS011;64832;45.274;5.880;2023-09-19T15:26:08;5.75;;;1.38;;
76105;SDS011;64832;45.274;5.880;2023-09-19T15:28:35;2.38;;;0.85;;
76105;SDS011;64832;45.274;5.880;2023-09-19T15:31:05;2.03;;;1.00;;
76105;SDS011;64832;45.274;5.880;2023-09-19T15:33:32;2.83;;;0.90;;
76105;SDS011;64832;45.274;5.880;2023-09-19T15:36:02;1.38;;;0.80;;
76105;SDS011;64832;45.274;5.880;2023-09-19T15:38:29;3.28;;;1.20;;
76105;SDS011;64832;45.274;5.880;2023-09-19T15:40:57;3.88;;;0.80;;
76105;SDS011;64832;45.274;5.880;2023-09-19T15:43:25;1.15;;;0.70;;
76105;SDS011;64832;45.274;5.880;2023-09-19T15:45:51;1.70;;;0.80;;
76105;SDS011;64832;45.274;5.880;2023-09-19T15:48:17;1.75;;;1.00;;
76105;SDS011;64832;45.274;5.880;2023-09-19T15:50:44;1.42;;;1.00;;
76105;SDS011;64832;45.274;5.880;2023-09-19T15:53:10;5.03;;;1.02;;
76105;SDS011;64832;45.274;5.880;2023-09-19T15:55:40;2.38;;;1.02;;
76105;SDS011;64832;45.274;5.880;2023-09-19T15:58:06;3.75;;;1.10;;
76105;SDS011;64832;45.274;5.880;2023-09-19T16:00:32;2.47;;;1.27;;
76105;SDS011;64832;45.274;5.880;2023-09-19T16:02:59;7.82;;;1.23;;
76105;SDS011;64832;45.274;5.880;2023-09-19T16:05:26;7.07;;;1.40;;
76105;SDS011;64832;45.274;5.880;2023-09-19T16:07:51;7.63;;;1.30;;
76105;SDS011;64832;45.274;5.880;2023-09-19T16:10:17;4.57;;;1.42;;
76105;SDS011;64832;45.274;5.880;2023-09-19T16:12:42;4.80;;;1.40;;
76105;SDS011;64832;45.274;5.880;2023-09-19T16:15:08;7.43;;;1.33;;
76105;SDS011;64832;45.274;5.880;2023-09-19T16:17:36;2.63;;;1.23;;
76105;SDS011;64832;45.274;5.880;2023-09-19T16:20:02;6.00;;;1.40;;
76105;SDS011;64832;45.274;5.880;2023-09-19T16:22:28;7.47;;;1.30;;
76105;SDS011;64832;45.274;5.880;2023-09-19T16:24:53;7.20;;;1.30;;
76105;SDS011;64832;45.274;5.880;2023-09-19T16:27:19;6.25;;;1.30;;
76105;SDS011;64832;45.274;5.880;2023-09-19T16:29:46;3.70;;;1.20;;
76105;SDS011;64832;45.274;5.880;2023-09-19T16:32:13;4.78;;;1.00;;
76105;SDS011;64832;45.274;5.880;2023-09-19T16:34:39;4.18;;;0.95;;
76105;SDS011;64832;45.274;5.880;2023-09-19T16:37:06;7.20;;;1.38;;
76105;SDS011;64832;45.274;5.880;2023-09-19T16:39:31;4.22;;;1.30;;
76105;SDS011;64832;45.274;5.880;2023-09-19T16:41:57;2.97;;;1.00;;
76105;SDS011;64832;45.274;5.880;2023-09-19T16:44:22;3.38;;;1.20;;
76105;SDS011;64832;45.274;5.880;2023-09-19T16:46:48;6.13;;;1.20;;
76105;SDS011;64832;45.274;5.880;2023-09-19T16:49:13;4.63;;;1.15;;
76105;SDS011;64832;45.274;5.880;2023-09-19T16:51:39;4.68;;;0.85;;
76105;SDS011;64832;45.274;5.880;2023-09-19T16:54:06;6.40;;;0.98;;
76105;SDS011;64832;45.274;5.880;2023-09-19T16:56:32;3.30;;;0.90;;
76105;SDS011;64832;45.274;5.880;2023-09-19T16:59:01;4.93;;;1.10;;
76105;SDS011;64832;45.274;5.880;2023-09-19T17:01:29;3.97;;;1.00;;
76105;SDS011;64832;45.274;5.880;2023-09-19T17:03:57;3.35;;;0.90;;
76105;SDS011;64832;45.274;5.880;2023-09-19T17:06:22;3.60;;;1.23;;
76105;SDS011;64832;45.274;5.880;2023-09-19T17:08:49;3.05;;;1.20;;
76105;SDS011;64832;45.274;5.880;2023-09-19T17:11:15;1.55;;;1.08;;
76105;SDS011;64832;45.274;5.880;2023-09-19T17:13:42;0.95;;;0.80;;
76105;SDS011;64832;45.274;5.880;2023-09-19T17:16:12;2.80;;;0.90;;
76105;SDS011;64832;45.274;5.880;2023-09-19T17:18:45;1.40;;;0.90;;
76105;SDS011;64832;45.274;5.880;2023-09-19T17:21:10;1.48;;;1.00;;
76105;SDS011;64832;45.274;5.880;2023-09-19T17:23:38;4.25;;;0.90;;
76105;SDS011;64832;45.274;5.880;2023-09-19T17:26:05;3.83;;;0.93;;
76105;SDS011;64832;45.274;5.880;2023-09-19T17:28:33;1.25;;;0.80;;
76105;SDS011;64832;45.274;5.880;2023-09-19T17:30:59;2.58;;;1.50;;
76105;SDS011;64832;45.274;5.880;2023-09-19T17:33:26;7.35;;;1.60;;
76105;SDS011;64832;45.274;5.880;2023-09-19T17:36:08;2.60;;;1.30;;
76105;SDS011;64832;45.274;5.880;2023-09-19T17:38:35;2.00;;;1.40;;
76105;SDS011;64832;45.274;5.880;2023-09-19T17:41:03;3.10;;;1.48;;
76105;SDS011;64832;45.274;5.880;2023-09-19T17:43:30;3.85;;;1.50;;
76105;SDS011;64832;45.274;5.880;2023-09-19T17:46:05;3.55;;;1.45;;
76105;SDS011;64832;45.274;5.880;2023-09-19T17:48:31;3.17;;;1.50;;
76105;SDS011;64832;45.274;5.880;2023-09-19T17:51:00;5.55;;;1.40;;
76105;SDS011;64832;45.274;5.880;2023-09-19T17:53:27;4.38;;;1.20;;
76105;SDS011;64832;45.274;5.880;2023-09-19T17:55:53;1.42;;;1.30;;
76105;SDS011;64832;45.274;5.880;2023-09-19T17:58:19;2.70;;;1.23;;
76105;SDS011;64832;45.274;5.880;2023-09-19T18:00:44;3.28;;;1.20;;
76105;SDS011;64832;45.274;5.880;2023-09-19T18:03:11;1.73;;;1.10;;
76105;SDS011;64832;45.274;5.880;2023-09-19T18:05:44;2.28;;;1.00;;
76105;SDS011;64832;45.274;5.880;2023-09-19T18:08:10;5.53;;;1.00;;
76105;SDS011;64832;45.274;5.880;2023-09-19T18:10:38;5.85;;;1.20;;
76105;SDS011;64832;45.274;5.880;2023-09-19T18:13:03;8.18;;;1.58;;
76105;SDS011;64832;45.274;5.880;2023-09-19T18:15:29;6.60;;;1.42;;
76105;SDS011;64832;45.274;5.880;2023-09-19T18:17:58;8.18;;;1.65;;
76105;SDS011;64832;45.274;5.880;2023-09-19T18:20:27;7.05;;;1.63;;
76105;SDS011;64832;45.274;5.880;2023-09-19T18:22:53;8.43;;;1.25;;
76105;SDS011;64832;45.274;5.880;2023-09-19T18:25:20;8.98;;;1.75;;
76105;SDS011;64832;45.274;5.880;2023-09-19T18:27:45;5.55;;;1.55;;
76105;SDS011;64832;45.274;5.880;2023-09-19T18:30:12;13.27;;;1.90;;
76105;SDS011;64832;45.274;5.880;2023-09-19T18:32:47;11.88;;;1.65;;
76105;SDS011;64832;45.274;5.880;2023-09-19T18:35:16;4.97;;;1.27;;
76105;SDS011;64832;45.274;5.880;2023-09-19T18:37:49;8.20;;;1.48;;
76105;SDS011;64832;45.274;5.880;2023-09-19T18:40:17;5.30;;;1.27;;
76105;SDS011;64832;45.274;5.880;2023-09-19T18:42:43;5.00;;;1.30;;
76105;SDS011;64832;45.274;5.880;2023-09-19T18:45:09;5.53;;;1.60;;
76105;SDS011;64832;45.274;5.880;2023-09-19T18:47:37;6.45;;;1.30;;
76105;SDS011;64832;45.274;5.880;2023-09-19T18:50:03;10.82;;;1.67;;
76105;SDS011;64832;45.274;5.880;2023-09-19T18:52:36;8.25;;;1.20;;
76105;SDS011;64832;45.274;5.880;2023-09-19T18:55:08;5.43;;;1.42;;
76105;SDS011;64832;45.274;5.880;2023-09-19T18:57:36;5.00;;;1.23;;
76105;SDS011;64832;45.274;5.880;2023-09-19T19:00:03;5.85;;;1.10;;
76105;SDS011;64832;45.274;5.880;2023-09-19T19:02:29;4.10;;;1.15;;
76105;SDS011;64832;45.274;5.880;2023-09-19T19:04:54;5.03;;;1.33;;
76105;SDS011;64832;45.274;5.880;2023-09-19T19:07:20;5.28;;;1.38;;
76105;SDS011;64832;45.274;5.880;2023-09-19T19:09:47;6.28;;;1.10;;
76105;SDS011;64832;45.274;5.880;2023-09-19T19:12:12;4.70;;;1.30;;
76105;SDS011;64832;45.274;5.880;2023-09-19T19:14:37;3.33;;;1.20;;
76105;SDS011;64832;45.274;5.880;2023-09-19T19:17:03;4.68;;;1.40;;
76105;SDS011;64832;45.274;5.880;2023-09-19T19:19:28;6.50;;;1.10;;
76105;SDS011;64832;45.274;5.880;2023-09-19T19:21:54;4.03;;;1.00;;
76105;SDS011;64832;45.274;5.880;2023-09-19T19:24:20;3.35;;;1.20;;
76105;SDS011;64832;45.274;5.880;2023-09-19T19:26:48;2.92;;;1.10;;
76105;SDS011;64832;45.274;5.880;2023-09-19T19:29:13;4.47;;;1.00;;
76105;SDS011;64832;45.274;5.880;2023-09-19T19:31:39;4.70;;;1.25;;
76105;SDS011;64832;45.274;5.880;2023-09-19T19:34:05;1.85;;;1.08;;
76105;SDS011;64832;45.274;5.880;2023-09-19T19:36:32;4.18;;;0.90;;
76105;SDS011;64832;45.274;5.880;2023-09-19T19:38:58;6.97;;;1.35;;
76105;SDS011;64832;45.274;5.880;2023-09-19T19:41:24;4.32;;;1.10;;
76105;SDS011;64832;45.274;5.880;2023-09-19T19:43:49;4.32;;;1.05;;
76105;SDS011;64832;45.274;5.880;2023-09-19T19:46:15;2.42;;;0.90;;
76105;SDS011;64832;45.274;5.880;2023-09-19T19:48:40;3.72;;;0.82;;
76105;SDS011;64832;45.274;5.880;2023-09-19T19:51:09;1.98;;;1.05;;
76105;SDS011;64832;45.274;5.880;2023-09-19T19:53:35;2.20;;;1.30;;
76105;SDS011;64832;45.274;5.880;2023-09-19T19:56:02;5.05;;;0.95;;
76105;SDS011;64832;45.274;5.880;2023-09-19T19:58:30;2.97;;;0.90;;
76105;SDS011;64832;45.274;5.880;2023-09-19T20:00:56;3.53;;;1.00;;
76105;SDS011;64832;45.274;5.880;2023-09-19T20:03:22;4.72;;;0.95;;
76105;SDS011;64832;45.274;5.880;2023-09-19T20:05:49;1.33;;;1.20;;
76105;SDS011;64832;45.274;5.880;2023-09-19T20:08:16;3.63;;;1.10;;
76105;SDS011;64832;45.274;5.880;2023-09-19T20:10:41;1.35;;;1.00;;
76105;SDS011;64832;45.274;5.880;2023-09-19T20:13:08;5.47;;;0.80;;
76105;SDS011;64832;45.274;5.880;2023-09-19T20:15:35;1.73;;;0.80;;
76105;SDS011;64832;45.274;5.880;2023-09-19T20:18:03;2.35;;;1.00;;
76105;SDS011;64832;45.274;5.880;2023-09-19T20:20:30;1.98;;;0.70;;
76105;SDS011;64832;45.274;5.880;2023-09-19T20:22:57;1.73;;;0.90;;
76105;SDS011;64832;45.274;5.880;2023-09-19T20:25:23;1.35;;;0.80;;
76105;SDS011;64832;45.274;5.880;2023-09-19T20:27:52;2.85;;;1.10;;
76105;SDS011;64832;45.274;5.880;2023-09-19T20:30:17;3.08;;;1.08;;
76105;SDS011;64832;45.274;5.880;2023-09-19T20:32:46;2.47;;;0.88;;
76105;SDS011;64832;45.274;5.880;2023-09-19T20:35:12;1.83;;;0.82;;
76105;SDS011;64832;45.274;5.880;2023-09-19T20:37:40;3.47;;;1.02;;